sensor_id;sensor_type;location;lat;lon;timestamp;temperature;humidity
17202;DHT22;8717;53.588;10.176;2023-05-24T00:01:17;9.50;99.90
17202;DHT22;8717;53.588;10.176;2023-05-24T00:03:50;9.50;99.90
17202;DHT22;8717;53.588;10.176;2023-05-24T00:06:19;9.50;99.90
17202;DHT22;8717;53.588;10.176;2023-05-24T00:08:46;9.50;99.90
17202;DHT22;8717;53.588;10.176;2023-05-24T00:11:13;9.50;99.90
17202;DHT22;8717;53.588;10.176;2023-05-24T00:13:40;9.50;99.90
17202;DHT22;8717;53.588;10.176;2023-05-24T00:16:07;9.50;99.90
17202;DHT22;8717;53.588;10.176;2023-05-24T00:18:34;9.60;99.90
17202;DHT22;8717;53.588;10.176;2023-05-24T00:21:07;9.50;99.90
17202;DHT22;8717;53.588;10.176;2023-05-24T00:23:35;9.50;99.90
17202;DHT22;8717;53.588;10.176;2023-05-24T00:26:03;9.50;99.90
17202;DHT22;8717;53.588;10.176;2023-05-24T00:28:30;9.50;99.90
17202;DHT22;8717;53.588;10.176;2023-05-24T00:30:57;9.50;99.90
17202;DHT22;8717;53.588;10.176;2023-05-24T00:33:24;9.40;99.90
17202;DHT22;8717;53.588;10.176;2023-05-24T00:35:52;9.50;99.90
17202;DHT22;8717;53.588;10.176;2023-05-24T00:38:21;9.50;99.90
17202;DHT22;8717;53.588;10.176;2023-05-24T00:40:49;9.50;99.90
17202;DHT22;8717;53.588;10.176;2023-05-24T00:43:16;9.50;99.90
17202;DHT22;8717;53.588;10.176;2023-05-24T00:45:43;9.50;99.90
17202;DHT22;8717;53.588;10.176;2023-05-24T00:48:10;9.50;99.90
17202;DHT22;8717;53.588;10.176;2023-05-24T00:50:38;9.50;99.90
17202;DHT22;8717;53.588;10.176;2023-05-24T00:53:06;9.50;99.90
17202;DHT22;8717;53.588;10.176;2023-05-24T00:55:34;9.50;99.90
17202;DHT22;8717;53.588;10.176;2023-05-24T00:58:02;9.50;99.90
17202;DHT22;8717;53.588;10.176;2023-05-24T01:00:29;9.40;99.90
17202;DHT22;8717;53.588;10.176;2023-05-24T01:02:57;9.50;99.90
17202;DHT22;8717;53.588;10.176;2023-05-24T01:05:27;9.40;99.90
17202;DHT22;8717;53.588;10.176;2023-05-24T01:08:01;9.40;99.90
17202;DHT22;8717;53.588;10.176;2023-05-24T01:10:36;9.40;99.90
17202;DHT22;8717;53.588;10.176;2023-05-24T01:13:14;9.40;99.90
17202;DHT22;8717;53.588;10.176;2023-05-24T01:15:52;9.40;99.90
17202;DHT22;8717;53.588;10.176;2023-05-24T01:18:24;9.40;99.90
17202;DHT22;8717;53.588;10.176;2023-05-24T01:21:04;9.40;99.90
17202;DHT22;8717;53.588;10.176;2023-05-24T01:23:43;9.30;99.90
17202;DHT22;8717;53.588;10.176;2023-05-24T01:26:18;9.40;99.90
17202;DHT22;8717;53.588;10.176;2023-05-24T01:28:48;9.40;99.90
17202;DHT22;8717;53.588;10.176;2023-05-24T01:31:17;9.40;99.90
17202;DHT22;8717;53.588;10.176;2023-05-24T01:33:47;9.40;99.90
17202;DHT22;8717;53.588;10.176;2023-05-24T01:36:18;9.40;99.90
17202;DHT22;8717;53.588;10.176;2023-05-24T01:38:46;9.40;99.90
17202;DHT22;8717;53.588;10.176;2023-05-24T01:43:57;9.40;99.90
17202;DHT22;8717;53.588;10.176;2023-05-24T01:46:33;9.40;99.90
17202;DHT22;8717;53.588;10.176;2023-05-24T01:49:08;9.40;99.90
17202;DHT22;8717;53.588;10.176;2023-05-24T01:51:40;9.40;99.90
17202;DHT22;8717;53.588;10.176;2023-05-24T01:54:11;9.40;99.90
17202;DHT22;8717;53.588;10.176;2023-05-24T01:56:40;9.40;99.90
17202;DHT22;8717;53.588;10.176;2023-05-24T01:59:12;9.40;99.90
17202;DHT22;8717;53.588;10.176;2023-05-24T02:01:39;9.50;99.90
17202;DHT22;8717;53.588;10.176;2023-05-24T02:04:06;9.50;99.90
17202;DHT22;8717;53.588;10.176;2023-05-24T02:06:34;9.50;99.90
17202;DHT22;8717;53.588;10.176;2023-05-24T02:09:00;9.50;99.90
17202;DHT22;8717;53.588;10.176;2023-05-24T02:11:27;9.50;99.90
17202;DHT22;8717;53.588;10.176;2023-05-24T02:13:54;9.50;99.90
17202;DHT22;8717;53.588;10.176;2023-05-24T02:16:22;9.50;99.90
17202;DHT22;8717;53.588;10.176;2023-05-24T02:18:51;9.50;99.90
17202;DHT22;8717;53.588;10.176;2023-05-24T02:21:17;9.50;99.90
17202;DHT22;8717;53.588;10.176;2023-05-24T02:23:44;9.50;99.90
17202;DHT22;8717;53.588;10.176;2023-05-24T02:26:11;9.50;99.90
17202;DHT22;8717;53.588;10.176;2023-05-24T02:28:39;9.50;99.90
17202;DHT22;8717;53.588;10.176;2023-05-24T02:31:05;9.50;99.90
17202;DHT22;8717;53.588;10.176;2023-05-24T02:33:34;9.60;99.90
17202;DHT22;8717;53.588;10.176;2023-05-24T02:36:02;9.50;99.90
17202;DHT22;8717;53.588;10.176;2023-05-24T02:38:29;9.60;99.90
17202;DHT22;8717;53.588;10.176;2023-05-24T02:40:56;9.60;99.90
17202;DHT22;8717;53.588;10.176;2023-05-24T02:43:23;9.60;99.90
17202;DHT22;8717;53.588;10.176;2023-05-24T02:45:49;9.60;99.90
17202;DHT22;8717;53.588;10.176;2023-05-24T02:48:16;9.60;99.90
17202;DHT22;8717;53.588;10.176;2023-05-24T02:50:44;9.60;99.90
17202;DHT22;8717;53.588;10.176;2023-05-24T02:53:11;9.60;99.90
17202;DHT22;8717;53.588;10.176;2023-05-24T02:55:38;9.60;99.90
17202;DHT22;8717;53.588;10.176;2023-05-24T02:58:09;9.70;99.90
17202;DHT22;8717;53.588;10.176;2023-05-24T03:00:36;9.70;99.90
17202;DHT22;8717;53.588;10.176;2023-05-24T03:03:03;9.70;99.90
17202;DHT22;8717;53.588;10.176;2023-05-24T03:05:31;9.60;99.90
17202;DHT22;8717;53.588;10.176;2023-05-24T03:07:59;9.70;99.90
17202;DHT22;8717;53.588;10.176;2023-05-24T03:10:25;9.60;99.90
17202;DHT22;8717;53.588;10.176;2023-05-24T03:12:52;9.60;99.90
17202;DHT22;8717;53.588;10.176;2023-05-24T03:15:19;9.60;99.90
17202;DHT22;8717;53.588;10.176;2023-05-24T03:17:46;9.70;99.90
17202;DHT22;8717;53.588;10.176;2023-05-24T03:20:13;9.70;99.90
17202;DHT22;8717;53.588;10.176;2023-05-24T03:22:40;9.70;99.90
17202;DHT22;8717;53.588;10.176;2023-05-24T03:25:09;9.70;99.90
17202;DHT22;8717;53.588;10.176;2023-05-24T03:27:36;9.70;99.90
17202;DHT22;8717;53.588;10.176;2023-05-24T03:30:04;9.70;99.90
17202;DHT22;8717;53.588;10.176;2023-05-24T03:32:37;9.70;99.90
17202;DHT22;8717;53.588;10.176;2023-05-24T03:35:04;9.70;99.90
17202;DHT22;8717;53.588;10.176;2023-05-24T03:37:32;9.70;99.90
17202;DHT22;8717;53.588;10.176;2023-05-24T03:39:58;9.70;99.90
17202;DHT22;8717;53.588;10.176;2023-05-24T03:42:51;9.70;99.90
17202;DHT22;8717;53.588;10.176;2023-05-24T03:45:21;9.70;99.90
17202;DHT22;8717;53.588;10.176;2023-05-24T03:47:48;9.70;99.90
17202;DHT22;8717;53.588;10.176;2023-05-24T03:50:15;9.70;99.90
17202;DHT22;8717;53.588;10.176;2023-05-24T03:52:41;9.70;99.90
17202;DHT22;8717;53.588;10.176;2023-05-24T03:55:08;9.70;99.90
17202;DHT22;8717;53.588;10.176;2023-05-24T03:57:36;9.70;99.90
17202;DHT22;8717;53.588;10.176;2023-05-24T04:00:05;9.70;99.90
17202;DHT22;8717;53.588;10.176;2023-05-24T04:02:39;9.80;99.90
17202;DHT22;8717;53.588;10.176;2023-05-24T04:05:06;9.80;99.90
17202;DHT22;8717;53.588;10.176;2023-05-24T04:07:35;9.80;99.90
17202;DHT22;8717;53.588;10.176;2023-05-24T04:10:03;9.80;99.90
17202;DHT22;8717;53.588;10.176;2023-05-24T04:12:30;9.80;99.90
17202;DHT22;8717;53.588;10.176;2023-05-24T04:14:58;9.80;99.90
17202;DHT22;8717;53.588;10.176;2023-05-24T04:17:27;9.80;99.90
17202;DHT22;8717;53.588;10.176;2023-05-24T04:19:59;9.80;99.90
17202;DHT22;8717;53.588;10.176;2023-05-24T04:22:27;9.90;99.90
17202;DHT22;8717;53.588;10.176;2023-05-24T04:24:54;9.90;99.90
17202;DHT22;8717;53.588;10.176;2023-05-24T04:27:21;9.90;99.90
17202;DHT22;8717;53.588;10.176;2023-05-24T04:29:50;9.90;99.90
17202;DHT22;8717;53.588;10.176;2023-05-24T04:32:17;10.00;99.90
17202;DHT22;8717;53.588;10.176;2023-05-24T04:34:45;10.00;99.90
17202;DHT22;8717;53.588;10.176;2023-05-24T04:37:12;10.00;99.90
17202;DHT22;8717;53.588;10.176;2023-05-24T04:39:43;10.10;99.90
17202;DHT22;8717;53.588;10.176;2023-05-24T04:42:10;10.20;99.90
17202;DHT22;8717;53.588;10.176;2023-05-24T04:44:39;10.20;99.90
17202;DHT22;8717;53.588;10.176;2023-05-24T04:47:06;10.20;99.90
17202;DHT22;8717;53.588;10.176;2023-05-24T04:49:33;10.20;99.90
17202;DHT22;8717;53.588;10.176;2023-05-24T04:52:01;10.20;99.90
17202;DHT22;8717;53.588;10.176;2023-05-24T04:54:28;10.20;99.90
17202;DHT22;8717;53.588;10.176;2023-05-24T04:56:55;10.20;99.90
17202;DHT22;8717;53.588;10.176;2023-05-24T04:59:22;10.30;99.90
17202;DHT22;8717;53.588;10.176;2023-05-24T05:01:48;10.30;99.90
17202;DHT22;8717;53.588;10.176;2023-05-24T05:04:15;10.30;99.90
17202;DHT22;8717;53.588;10.176;2023-05-24T05:06:42;10.30;99.90
17202;DHT22;8717;53.588;10.176;2023-05-24T05:09:10;10.30;99.90
17202;DHT22;8717;53.588;10.176;2023-05-24T05:11:39;10.30;99.90
17202;DHT22;8717;53.588;10.176;2023-05-24T05:14:06;10.30;99.90
17202;DHT22;8717;53.588;10.176;2023-05-24T05:16:33;10.40;99.90
17202;DHT22;8717;53.588;10.176;2023-05-24T05:19:00;10.40;99.90
17202;DHT22;8717;53.588;10.176;2023-05-24T05:21:29;10.40;99.90
17202;DHT22;8717;53.588;10.176;2023-05-24T05:23:57;10.40;99.90
17202;DHT22;8717;53.588;10.176;2023-05-24T05:26:25;10.50;99.90
17202;DHT22;8717;53.588;10.176;2023-05-24T05:28:52;10.50;99.90
17202;DHT22;8717;53.588;10.176;2023-05-24T05:31:19;10.50;99.90
17202;DHT22;8717;53.588;10.176;2023-05-24T05:33:45;10.50;99.90
17202;DHT22;8717;53.588;10.176;2023-05-24T05:36:12;10.50;99.90
17202;DHT22;8717;53.588;10.176;2023-05-24T05:38:39;10.50;99.90
17202;DHT22;8717;53.588;10.176;2023-05-24T05:41:07;10.60;99.90
17202;DHT22;8717;53.588;10.176;2023-05-24T05:43:37;10.60;99.90
17202;DHT22;8717;53.588;10.176;2023-05-24T05:46:04;10.60;99.90
17202;DHT22;8717;53.588;10.176;2023-05-24T05:48:31;10.60;99.90
17202;DHT22;8717;53.588;10.176;2023-05-24T05:50:58;10.60;99.90
17202;DHT22;8717;53.588;10.176;2023-05-24T05:53:25;10.60;99.90
17202;DHT22;8717;53.588;10.176;2023-05-24T05:55:51;10.70;99.90
17202;DHT22;8717;53.588;10.176;2023-05-24T05:58:18;10.70;99.90
17202;DHT22;8717;53.588;10.176;2023-05-24T06:00:46;10.80;99.90
17202;DHT22;8717;53.588;10.176;2023-05-24T06:03:13;10.90;99.90
17202;DHT22;8717;53.588;10.176;2023-05-24T06:05:40;10.90;99.90
17202;DHT22;8717;53.588;10.176;2023-05-24T06:08:07;11.00;99.90
17202;DHT22;8717;53.588;10.176;2023-05-24T06:10:34;11.10;99.90
17202;DHT22;8717;53.588;10.176;2023-05-24T06:13:01;11.10;99.90
17202;DHT22;8717;53.588;10.176;2023-05-24T06:15:28;11.10;99.90
17202;DHT22;8717;53.588;10.176;2023-05-24T06:17:56;11.20;99.90
17202;DHT22;8717;53.588;10.176;2023-05-24T06:20:23;11.30;99.90
17202;DHT22;8717;53.588;10.176;2023-05-24T06:22:49;11.30;99.90
17202;DHT22;8717;53.588;10.176;2023-05-24T06:25:16;11.40;99.90
17202;DHT22;8717;53.588;10.176;2023-05-24T06:27:45;11.40;99.90
17202;DHT22;8717;53.588;10.176;2023-05-24T06:30:12;11.50;99.90
17202;DHT22;8717;53.588;10.176;2023-05-24T06:32:39;11.50;99.90
17202;DHT22;8717;53.588;10.176;2023-05-24T06:35:08;11.50;99.90
17202;DHT22;8717;53.588;10.176;2023-05-24T06:37:35;11.50;99.90
17202;DHT22;8717;53.588;10.176;2023-05-24T06:40:04;11.50;99.90
17202;DHT22;8717;53.588;10.176;2023-05-24T06:42:31;11.50;99.90
17202;DHT22;8717;53.588;10.176;2023-05-24T06:44:58;11.40;99.90
17202;DHT22;8717;53.588;10.176;2023-05-24T06:47:25;11.40;99.90
17202;DHT22;8717;53.588;10.176;2023-05-24T06:49:52;11.40;99.90
17202;DHT22;8717;53.588;10.176;2023-05-24T06:52:20;11.40;99.90
17202;DHT22;8717;53.588;10.176;2023-05-24T06:54:47;11.30;99.90
17202;DHT22;8717;53.588;10.176;2023-05-24T06:57:14;11.30;99.90
17202;DHT22;8717;53.588;10.176;2023-05-24T06:59:41;11.30;99.90
17202;DHT22;8717;53.588;10.176;2023-05-24T07:02:07;11.30;99.90
17202;DHT22;8717;53.588;10.176;2023-05-24T07:04:34;11.40;99.90
17202;DHT22;8717;53.588;10.176;2023-05-24T07:07:00;11.50;99.90
17202;DHT22;8717;53.588;10.176;2023-05-24T07:09:29;11.60;99.90
17202;DHT22;8717;53.588;10.176;2023-05-24T07:11:55;11.70;99.90
17202;DHT22;8717;53.588;10.176;2023-05-24T07:14:22;11.90;99.90
17202;DHT22;8717;53.588;10.176;2023-05-24T07:16:50;12.10;99.90
17202;DHT22;8717;53.588;10.176;2023-05-24T07:19:19;12.30;99.90
17202;DHT22;8717;53.588;10.176;2023-05-24T07:21:46;12.50;99.90
17202;DHT22;8717;53.588;10.176;2023-05-24T07:24:13;12.70;99.90
17202;DHT22;8717;53.588;10.176;2023-05-24T07:26:41;13.00;99.90
17202;DHT22;8717;53.588;10.176;2023-05-24T07:29:07;13.30;99.90
17202;DHT22;8717;53.588;10.176;2023-05-24T07:31:34;13.60;99.90
17202;DHT22;8717;53.588;10.176;2023-05-24T07:34:01;13.90;99.90
17202;DHT22;8717;53.588;10.176;2023-05-24T07:36:27;14.00;99.90
17202;DHT22;8717;53.588;10.176;2023-05-24T07:38:56;14.10;99.90
17202;DHT22;8717;53.588;10.176;2023-05-24T07:41:25;14.20;99.90
17202;DHT22;8717;53.588;10.176;2023-05-24T07:43:53;14.10;99.90
17202;DHT22;8717;53.588;10.176;2023-05-24T07:46:20;14.10;99.90
17202;DHT22;8717;53.588;10.176;2023-05-24T07:48:47;14.10;99.90
17202;DHT22;8717;53.588;10.176;2023-05-24T07:51:14;14.00;99.90
17202;DHT22;8717;53.588;10.176;2023-05-24T07:53:40;14.00;99.90
17202;DHT22;8717;53.588;10.176;2023-05-24T07:56:07;13.90;99.90
17202;DHT22;8717;53.588;10.176;2023-05-24T07:58:34;13.80;99.90
17202;DHT22;8717;53.588;10.176;2023-05-24T08:01:02;13.70;99.90
17202;DHT22;8717;53.588;10.176;2023-05-24T08:03:29;13.60;99.90
17202;DHT22;8717;53.588;10.176;2023-05-24T08:05:55;13.50;99.90
17202;DHT22;8717;53.588;10.176;2023-05-24T08:08:22;13.40;99.90
17202;DHT22;8717;53.588;10.176;2023-05-24T08:10:49;13.40;99.90
17202;DHT22;8717;53.588;10.176;2023-05-24T08:13:15;13.30;99.90
17202;DHT22;8717;53.588;10.176;2023-05-24T08:15:42;13.30;99.90
17202;DHT22;8717;53.588;10.176;2023-05-24T08:18:10;13.30;99.90
17202;DHT22;8717;53.588;10.176;2023-05-24T08:20:37;13.40;99.90
17202;DHT22;8717;53.588;10.176;2023-05-24T08:23:05;13.40;99.90
17202;DHT22;8717;53.588;10.176;2023-05-24T08:25:31;13.30;99.90
17202;DHT22;8717;53.588;10.176;2023-05-24T08:27:58;13.30;99.90
17202;DHT22;8717;53.588;10.176;2023-05-24T08:30:25;13.30;99.90
17202;DHT22;8717;53.588;10.176;2023-05-24T08:32:52;13.30;99.90
17202;DHT22;8717;53.588;10.176;2023-05-24T08:35:20;13.30;99.90
17202;DHT22;8717;53.588;10.176;2023-05-24T08:37:46;13.20;99.90
17202;DHT22;8717;53.588;10.176;2023-05-24T08:40:13;13.20;99.90
17202;DHT22;8717;53.588;10.176;2023-05-24T08:42:40;13.20;99.90
17202;DHT22;8717;53.588;10.176;2023-05-24T08:45:10;13.30;99.90
17202;DHT22;8717;53.588;10.176;2023-05-24T08:47:37;13.30;99.90
17202;DHT22;8717;53.588;10.176;2023-05-24T08:50:05;13.30;99.90
17202;DHT22;8717;53.588;10.176;2023-05-24T08:52:35;13.30;99.90
17202;DHT22;8717;53.588;10.176;2023-05-24T08:55:03;13.30;99.90
17202;DHT22;8717;53.588;10.176;2023-05-24T08:57:30;13.30;99.90
17202;DHT22;8717;53.588;10.176;2023-05-24T08:59:59;13.30;99.90
17202;DHT22;8717;53.588;10.176;2023-05-24T09:02:26;13.40;99.90
17202;DHT22;8717;53.588;10.176;2023-05-24T09:04:53;13.50;99.90
17202;DHT22;8717;53.588;10.176;2023-05-24T09:07:21;13.60;99.90
17202;DHT22;8717;53.588;10.176;2023-05-24T09:09:56;13.70;99.90
17202;DHT22;8717;53.588;10.176;2023-05-24T09:12:23;13.90;99.90
17202;DHT22;8717;53.588;10.176;2023-05-24T09:14:52;14.00;99.90
17202;DHT22;8717;53.588;10.176;2023-05-24T09:17:19;14.20;99.90
17202;DHT22;8717;53.588;10.176;2023-05-24T09:19:48;14.30;99.90
17202;DHT22;8717;53.588;10.176;2023-05-24T09:22:16;14.60;99.90
17202;DHT22;8717;53.588;10.176;2023-05-24T09:24:46;14.80;99.90
17202;DHT22;8717;53.588;10.176;2023-05-24T09:27:15;15.00;99.90
17202;DHT22;8717;53.588;10.176;2023-05-24T09:29:42;15.10;99.90
17202;DHT22;8717;53.588;10.176;2023-05-24T09:32:10;15.30;99.90
17202;DHT22;8717;53.588;10.176;2023-05-24T09:34:38;15.40;99.90
17202;DHT22;8717;53.588;10.176;2023-05-24T09:37:09;15.50;99.90
17202;DHT22;8717;53.588;10.176;2023-05-24T09:39:39;15.60;99.90
17202;DHT22;8717;53.588;10.176;2023-05-24T09:42:06;15.60;99.90
17202;DHT22;8717;53.588;10.176;2023-05-24T09:44:34;15.70;99.90
17202;DHT22;8717;53.588;10.176;2023-05-24T09:47:02;15.80;99.90
17202;DHT22;8717;53.588;10.176;2023-05-24T09:49:30;15.90;99.90
17202;DHT22;8717;53.588;10.176;2023-05-24T09:51:57;16.00;99.90
17202;DHT22;8717;53.588;10.176;2023-05-24T09:54:23;16.00;99.90
17202;DHT22;8717;53.588;10.176;2023-05-24T09:56:51;16.00;99.90
17202;DHT22;8717;53.588;10.176;2023-05-24T09:59:18;16.00;99.90
17202;DHT22;8717;53.588;10.176;2023-05-24T10:01:46;16.00;99.90
17202;DHT22;8717;53.588;10.176;2023-05-24T10:04:18;15.90;99.90
17202;DHT22;8717;53.588;10.176;2023-05-24T10:06:45;15.90;99.90
17202;DHT22;8717;53.588;10.176;2023-05-24T10:09:13;15.90;99.90
17202;DHT22;8717;53.588;10.176;2023-05-24T10:11:40;15.80;99.90
17202;DHT22;8717;53.588;10.176;2023-05-24T10:14:08;15.80;99.90
17202;DHT22;8717;53.588;10.176;2023-05-24T10:16:35;15.80;99.90
17202;DHT22;8717;53.588;10.176;2023-05-24T10:19:04;15.80;99.90
17202;DHT22;8717;53.588;10.176;2023-05-24T10:21:31;15.80;99.90
17202;DHT22;8717;53.588;10.176;2023-05-24T10:24:02;15.90;99.90
17202;DHT22;8717;53.588;10.176;2023-05-24T10:26:31;15.90;99.90
17202;DHT22;8717;53.588;10.176;2023-05-24T10:29:02;16.10;99.90
17202;DHT22;8717;53.588;10.176;2023-05-24T10:31:31;16.20;99.90
17202;DHT22;8717;53.588;10.176;2023-05-24T10:34:00;16.30;99.90
17202;DHT22;8717;53.588;10.176;2023-05-24T10:36:29;16.30;99.90
17202;DHT22;8717;53.588;10.176;2023-05-24T10:38:57;16.30;99.70
17202;DHT22;8717;53.588;10.176;2023-05-24T10:41:25;16.40;99.80
17202;DHT22;8717;53.588;10.176;2023-05-24T10:43:53;16.40;99.70
17202;DHT22;8717;53.588;10.176;2023-05-24T10:46:20;16.30;99.60
17202;DHT22;8717;53.588;10.176;2023-05-24T10:48:59;16.30;99.60
17202;DHT22;8717;53.588;10.176;2023-05-24T10:51:32;16.20;99.60
17202;DHT22;8717;53.588;10.176;2023-05-24T10:54:21;16.20;99.70
17202;DHT22;8717;53.588;10.176;2023-05-24T10:56:51;16.30;99.80
17202;DHT22;8717;53.588;10.176;2023-05-24T10:59:23;16.40;99.60
17202;DHT22;8717;53.588;10.176;2023-05-24T11:01:54;16.30;99.70
17202;DHT22;8717;53.588;10.176;2023-05-24T11:04:21;16.40;99.90
17202;DHT22;8717;53.588;10.176;2023-05-24T11:06:55;16.50;99.40
17202;DHT22;8717;53.588;10.176;2023-05-24T11:09:23;16.70;98.80
17202;DHT22;8717;53.588;10.176;2023-05-24T11:11:54;16.90;98.50
17202;DHT22;8717;53.588;10.176;2023-05-24T11:14:23;17.00;98.30
17202;DHT22;8717;53.588;10.176;2023-05-24T11:16:49;17.10;97.60
17202;DHT22;8717;53.588;10.176;2023-05-24T11:19:18;17.10;98.00
17202;DHT22;8717;53.588;10.176;2023-05-24T11:21:45;17.10;97.80
17202;DHT22;8717;53.588;10.176;2023-05-24T11:24:15;17.00;98.20
17202;DHT22;8717;53.588;10.176;2023-05-24T11:26:43;17.00;98.40
17202;DHT22;8717;53.588;10.176;2023-05-24T11:29:12;17.00;98.50
17202;DHT22;8717;53.588;10.176;2023-05-24T11:31:46;17.10;98.10
17202;DHT22;8717;53.588;10.176;2023-05-24T11:34:13;17.10;98.40
17202;DHT22;8717;53.588;10.176;2023-05-24T11:36:41;17.20;98.40
17202;DHT22;8717;53.588;10.176;2023-05-24T11:39:08;17.30;98.60
17202;DHT22;8717;53.588;10.176;2023-05-24T11:41:37;17.40;98.00
17202;DHT22;8717;53.588;10.176;2023-05-24T11:44:04;17.60;97.20
17202;DHT22;8717;53.588;10.176;2023-05-24T11:46:31;17.80;97.50
17202;DHT22;8717;53.588;10.176;2023-05-24T11:48:59;18.00;97.20
17202;DHT22;8717;53.588;10.176;2023-05-24T11:51:26;18.30;95.70
17202;DHT22;8717;53.588;10.176;2023-05-24T11:53:54;18.70;96.60
17202;DHT22;8717;53.588;10.176;2023-05-24T11:56:21;19.10;96.30
17202;DHT22;8717;53.588;10.176;2023-05-24T11:58:52;19.40;95.90
17202;DHT22;8717;53.588;10.176;2023-05-24T12:01:22;19.70;95.00
17202;DHT22;8717;53.588;10.176;2023-05-24T12:03:50;20.00;95.10
17202;DHT22;8717;53.588;10.176;2023-05-24T12:06:17;20.20;93.90
17202;DHT22;8717;53.588;10.176;2023-05-24T12:08:44;20.30;92.80
17202;DHT22;8717;53.588;10.176;2023-05-24T12:11:11;20.40;92.90
17202;DHT22;8717;53.588;10.176;2023-05-24T12:13:39;20.30;93.40
17202;DHT22;8717;53.588;10.176;2023-05-24T12:16:07;20.20;92.70
17202;DHT22;8717;53.588;10.176;2023-05-24T12:18:33;20.00;91.40
17202;DHT22;8717;53.588;10.176;2023-05-24T12:21:00;19.80;91.90
17202;DHT22;8717;53.588;10.176;2023-05-24T12:23:27;19.50;91.90
17202;DHT22;8717;53.588;10.176;2023-05-24T12:25:59;19.20;92.70
17202;DHT22;8717;53.588;10.176;2023-05-24T12:28:26;19.00;92.10
17202;DHT22;8717;53.588;10.176;2023-05-24T12:30:53;18.80;92.80
17202;DHT22;8717;53.588;10.176;2023-05-24T12:33:23;18.70;92.40
17202;DHT22;8717;53.588;10.176;2023-05-24T12:35:50;18.60;93.00
17202;DHT22;8717;53.588;10.176;2023-05-24T12:38:18;18.50;93.70
17202;DHT22;8717;53.588;10.176;2023-05-24T12:40:49;18.60;94.10
17202;DHT22;8717;53.588;10.176;2023-05-24T12:43:18;18.70;94.00
17202;DHT22;8717;53.588;10.176;2023-05-24T12:45:45;18.80;93.60
17202;DHT22;8717;53.588;10.176;2023-05-24T12:48:11;19.00;93.60
17202;DHT22;8717;53.588;10.176;2023-05-24T12:50:39;19.20;93.20
17202;DHT22;8717;53.588;10.176;2023-05-24T12:53:06;19.40;93.60
17202;DHT22;8717;53.588;10.176;2023-05-24T12:55:33;19.50;92.70
17202;DHT22;8717;53.588;10.176;2023-05-24T12:57:59;19.70;92.10
17202;DHT22;8717;53.588;10.176;2023-05-24T13:00:30;19.90;92.50
17202;DHT22;8717;53.588;10.176;2023-05-24T13:02:57;20.00;91.90
17202;DHT22;8717;53.588;10.176;2023-05-24T13:05:25;20.00;90.20
17202;DHT22;8717;53.588;10.176;2023-05-24T13:07:55;20.00;90.90
17202;DHT22;8717;53.588;10.176;2023-05-24T13:10:22;19.90;89.30
17202;DHT22;8717;53.588;10.176;2023-05-24T13:12:49;19.90;90.60
17202;DHT22;8717;53.588;10.176;2023-05-24T13:15:16;19.80;90.90
17202;DHT22;8717;53.588;10.176;2023-05-24T13:17:43;19.80;90.60
17202;DHT22;8717;53.588;10.176;2023-05-24T13:20:11;19.60;90.10
17202;DHT22;8717;53.588;10.176;2023-05-24T13:22:38;19.50;90.40
17202;DHT22;8717;53.588;10.176;2023-05-24T13:25:07;19.40;90.50
17202;DHT22;8717;53.588;10.176;2023-05-24T13:27:34;19.20;90.70
17202;DHT22;8717;53.588;10.176;2023-05-24T13:30:01;19.20;91.20
17202;DHT22;8717;53.588;10.176;2023-05-24T13:32:28;19.10;91.50
17202;DHT22;8717;53.588;10.176;2023-05-24T13:34:56;19.00;91.70
17202;DHT22;8717;53.588;10.176;2023-05-24T13:37:23;19.00;91.30
17202;DHT22;8717;53.588;10.176;2023-05-24T13:39:50;19.00;91.20
17202;DHT22;8717;53.588;10.176;2023-05-24T13:42:18;19.00;91.20
17202;DHT22;8717;53.588;10.176;2023-05-24T13:44:45;19.00;91.10
17202;DHT22;8717;53.588;10.176;2023-05-24T13:47:12;19.10;91.50
17202;DHT22;8717;53.588;10.176;2023-05-24T13:49:40;19.10;91.00
17202;DHT22;8717;53.588;10.176;2023-05-24T13:52:07;19.20;91.10
17202;DHT22;8717;53.588;10.176;2023-05-24T13:54:34;19.20;91.10
17202;DHT22;8717;53.588;10.176;2023-05-24T13:57:00;19.30;90.80
17202;DHT22;8717;53.588;10.176;2023-05-24T13:59:28;19.40;90.20
17202;DHT22;8717;53.588;10.176;2023-05-24T14:01:55;19.50;90.00
17202;DHT22;8717;53.588;10.176;2023-05-24T14:04:22;19.60;90.30
17202;DHT22;8717;53.588;10.176;2023-05-24T14:06:49;19.70;90.40
17202;DHT22;8717;53.588;10.176;2023-05-24T14:09:15;19.70;90.20
17202;DHT22;8717;53.588;10.176;2023-05-24T14:11:42;19.80;89.70
17202;DHT22;8717;53.588;10.176;2023-05-24T14:14:09;19.90;89.50
17202;DHT22;8717;53.588;10.176;2023-05-24T14:16:40;20.00;89.10
17202;DHT22;8717;53.588;10.176;2023-05-24T14:19:06;20.10;89.00
17202;DHT22;8717;53.588;10.176;2023-05-24T14:21:33;20.20;89.00
17202;DHT22;8717;53.588;10.176;2023-05-24T14:24:00;20.30;88.40
17202;DHT22;8717;53.588;10.176;2023-05-24T14:26:28;20.40;88.00
17202;DHT22;8717;53.588;10.176;2023-05-24T14:28:55;20.40;88.00
17202;DHT22;8717;53.588;10.176;2023-05-24T14:31:22;20.50;88.00
17202;DHT22;8717;53.588;10.176;2023-05-24T14:33:50;20.50;87.30
17202;DHT22;8717;53.588;10.176;2023-05-24T14:36:17;20.50;87.20
17202;DHT22;8717;53.588;10.176;2023-05-24T14:38:44;20.50;86.90
17202;DHT22;8717;53.588;10.176;2023-05-24T14:41:11;20.50;86.20
17202;DHT22;8717;53.588;10.176;2023-05-24T14:43:37;20.50;86.00
17202;DHT22;8717;53.588;10.176;2023-05-24T14:46:04;20.50;86.00
17202;DHT22;8717;53.588;10.176;2023-05-24T14:48:31;20.60;85.90
17202;DHT22;8717;53.588;10.176;2023-05-24T14:50:59;20.60;85.70
17202;DHT22;8717;53.588;10.176;2023-05-24T14:53:26;20.60;84.90
17202;DHT22;8717;53.588;10.176;2023-05-24T14:55:52;20.60;85.70
17202;DHT22;8717;53.588;10.176;2023-05-24T14:58:19;20.50;84.50
17202;DHT22;8717;53.588;10.176;2023-05-24T15:00:46;20.40;85.70
17202;DHT22;8717;53.588;10.176;2023-05-24T15:03:13;20.40;85.80
17202;DHT22;8717;53.588;10.176;2023-05-24T15:05:39;20.20;86.30
17202;DHT22;8717;53.588;10.176;2023-05-24T15:08:08;20.20;86.50
17202;DHT22;8717;53.588;10.176;2023-05-24T15:10:35;20.10;85.80
17202;DHT22;8717;53.588;10.176;2023-05-24T15:13:03;20.10;86.90
17202;DHT22;8717;53.588;10.176;2023-05-24T15:15:30;20.20;87.50
17202;DHT22;8717;53.588;10.176;2023-05-24T15:17:57;20.30;87.00
17202;DHT22;8717;53.588;10.176;2023-05-24T15:20:24;20.40;86.70
17202;DHT22;8717;53.588;10.176;2023-05-24T15:22:51;20.50;86.10
17202;DHT22;8717;53.588;10.176;2023-05-24T15:25:19;20.50;84.30
17202;DHT22;8717;53.588;10.176;2023-05-24T15:27:46;20.50;84.30
17202;DHT22;8717;53.588;10.176;2023-05-24T15:30:13;20.60;84.80
17202;DHT22;8717;53.588;10.176;2023-05-24T15:32:41;20.70;84.90
17202;DHT22;8717;53.588;10.176;2023-05-24T15:35:10;20.70;84.70
17202;DHT22;8717;53.588;10.176;2023-05-24T15:37:37;20.60;85.70
17202;DHT22;8717;53.588;10.176;2023-05-24T15:40:04;20.60;86.40
17202;DHT22;8717;53.588;10.176;2023-05-24T15:42:33;20.60;87.30